DLH474 EDDM-CYUL
Flight info
| Callsign | DLH474 |
|---|---|
| Flight time | N/A |
| Altitude | 38000 |
| Route | OLASO2N OLASO Z714 PELOG UM164 LUPEN/N0477F390 DCT POGOL DCT LUVAL DCT ROTSI/N0483F400 DCT AMODO DCT COHPA DCT RESMI DCT TABOV DCT PIGOP DCT DITAL DCT LGL DCT ARGED DCT SENLO DCT JSY DCT LIZAD DCT LULOX/M084F400 DCT DINIM/M084F390 DCT 52N020W 52N030W 52N040W 51N050W DCT ALLRY/N0491F400 DCT TAFFY DCT ATENE DCT KEBIG ROCKT3 |
| Aircraft | A359/H-SADE2E3GHIJ1J2J3J4J5M1P2RWXYZ/LB1D1 |
Departure
| Time | 2026-05-04 06:40 |
|---|---|
| Airport | Munich Airport (EDDM) |
Arrival
| Time | N/A |
|---|---|
| Airport | Montreal / Pierre Elliott Trudeau International Airport (CYUL) |
| Time | Latitude | Longitude | Altitude | Speed | Heading |
|---|---|---|---|---|---|
| 2026-05-04 06:03 | 48.35740 | 11.79268 | 1492 ft | 0 kts | 263° |
| 2026-05-04 06:27 | 48.35744 | 11.79323 | 1491 ft | 4 kts | 263° |
| 2026-05-04 06:28 | 48.35747 | 11.79354 | 1478 ft | 4 kts | 272° |
| 2026-05-04 06:28 | 48.35740 | 11.79391 | 1476 ft | 4 kts | 313° |
| 2026-05-04 06:28 | 48.35720 | 11.79408 | 1491 ft | 3 kts | 353° |
| 2026-05-04 06:28 | 48.35694 | 11.79412 | 1485 ft | 4 kts | 353° |
| 2026-05-04 06:29 | 48.35689 | 11.79413 | 1486 ft | 0 kts | 353° |
| 2026-05-04 06:31 | 48.35709 | 11.79411 | 1478 ft | 6 kts | 355° |
| 2026-05-04 06:32 | 48.35769 | 11.79437 | 1486 ft | 12 kts | 31° |
| 2026-05-04 06:33 | 48.36193 | 11.80604 | 1477 ft | 25 kts | 83° |
| 2026-05-04 06:34 | 48.36215 | 11.80876 | 1484 ft | 27 kts | 83° |
| 2026-05-04 06:34 | 48.36237 | 11.81169 | 1488 ft | 25 kts | 83° |
| 2026-05-04 06:34 | 48.36256 | 11.81417 | 1487 ft | 25 kts | 83° |
| 2026-05-04 06:34 | 48.36277 | 11.81691 | 1486 ft | 25 kts | 83° |
| 2026-05-04 06:35 | 48.36295 | 11.81931 | 1484 ft | 22 kts | 83° |
| 2026-05-04 06:36 | 48.36574 | 11.82245 | 1492 ft | 0 kts | 313° |
| 2026-05-04 06:37 | 48.36574 | 11.82244 | 1476 ft | 1 kts | 313° |
| 2026-05-04 06:37 | 48.36596 | 11.82203 | 1479 ft | 12 kts | 309° |
| 2026-05-04 06:37 | 48.36669 | 11.82053 | 1476 ft | 19 kts | 294° |
| 2026-05-04 06:37 | 48.36675 | 11.81944 | 1491 ft | 0 kts | 265° |
| 2026-05-04 06:38 | 48.36671 | 11.81874 | 1478 ft | 29 kts | 265° |
| 2026-05-04 06:40 | 48.35921 | 11.70881 | 3509 ft | 213 kts | 259° |
| 2026-05-04 06:40 | 48.35656 | 11.68632 | 3905 ft | 223 kts | 262° |
| 2026-05-04 06:40 | 48.35451 | 11.66306 | 4497 ft | 224 kts | 263° |
| 2026-05-04 06:40 | 48.35282 | 11.63881 | 4803 ft | 242 kts | 263° |
| 2026-05-04 06:41 | 48.35096 | 11.61264 | 5111 ft | 259 kts | 263° |
| 2026-05-04 06:41 | 48.34896 | 11.58529 | 5648 ft | 264 kts | 263° |
| 2026-05-04 06:41 | 48.34690 | 11.55768 | 6256 ft | 267 kts | 263° |
| 2026-05-04 06:41 | 48.34484 | 11.52971 | 6842 ft | 271 kts | 263° |
| 2026-05-04 06:42 | 48.34276 | 11.50131 | 7408 ft | 275 kts | 263° |
| 2026-05-04 06:42 | 48.34064 | 11.47264 | 7988 ft | 279 kts | 263° |
| 2026-05-04 06:42 | 48.33849 | 11.44390 | 8545 ft | 281 kts | 263° |
| 2026-05-04 06:44 | 48.32062 | 11.23146 | 12027 ft | 317 kts | 259° |
| 2026-05-04 06:44 | 48.31687 | 11.19813 | 12278 ft | 330 kts | 260° |
| 2026-05-04 06:44 | 48.31303 | 11.16334 | 12533 ft | 342 kts | 260° |
| 2026-05-04 06:45 | 48.30910 | 11.12734 | 12860 ft | 350 kts | 260° |
| 2026-05-04 06:45 | 48.30516 | 11.09139 | 13320 ft | 354 kts | 260° |
| 2026-05-04 06:45 | 48.30117 | 11.05507 | 13787 ft | 356 kts | 260° |
| 2026-05-04 06:45 | 48.29714 | 11.01822 | 14264 ft | 359 kts | 260° |
| 2026-05-04 06:46 | 48.29308 | 10.98106 | 14727 ft | 362 kts | 260° |
| 2026-05-04 06:46 | 48.28898 | 10.94370 | 15186 ft | 364 kts | 260° |
| 2026-05-04 06:46 | 48.28485 | 10.90612 | 15648 ft | 366 kts | 260° |
| 2026-05-04 06:46 | 48.28065 | 10.86801 | 16094 ft | 369 kts | 260° |
| 2026-05-04 06:48 | 48.25034 | 10.59702 | 19063 ft | 384 kts | 260° |
| 2026-05-04 06:48 | 48.24584 | 10.55724 | 19458 ft | 387 kts | 260° |
| 2026-05-04 06:49 | 48.24130 | 10.51737 | 19857 ft | 388 kts | 259° |
| 2026-05-04 06:50 | 48.20939 | 10.23196 | 22266 ft | 404 kts | 266° |
| 2026-05-04 06:51 | 48.20864 | 10.18981 | 22585 ft | 406 kts | 270° |
| 2026-05-04 06:51 | 48.20910 | 10.16166 | 22791 ft | 407 kts | 271° |
| 2026-05-04 06:51 | 48.21109 | 10.10535 | 23189 ft | 410 kts | 273° |
| 2026-05-04 06:51 | 48.21290 | 10.06239 | 23489 ft | 412 kts | 273° |
| 2026-05-04 06:52 | 48.21408 | 10.03354 | 23685 ft | 413 kts | 273° |
| 2026-05-04 06:52 | 48.21571 | 9.99078 | 23969 ft | 415 kts | 272° |
| 2026-05-04 06:52 | 48.21719 | 9.94751 | 24251 ft | 417 kts | 272° |
| 2026-05-04 06:52 | 48.21855 | 9.90400 | 24523 ft | 418 kts | 272° |
| 2026-05-04 06:53 | 48.22012 | 9.86026 | 24809 ft | 419 kts | 273° |
| 2026-05-04 06:53 | 48.22196 | 9.81652 | 25070 ft | 421 kts | 273° |
| 2026-05-04 06:53 | 48.22393 | 9.77246 | 25330 ft | 423 kts | 273° |
| 2026-05-04 06:53 | 48.22591 | 9.72845 | 25633 ft | 424 kts | 273° |
| 2026-05-04 06:54 | 48.22831 | 9.68427 | 25913 ft | 426 kts | 277° |
| 2026-05-04 06:54 | 48.23290 | 9.64042 | 26198 ft | 427 kts | 279° |
| 2026-05-04 06:54 | 48.23801 | 9.59704 | 26475 ft | 428 kts | 279° |
| 2026-05-04 06:54 | 48.24348 | 9.55298 | 26753 ft | 431 kts | 280° |
| 2026-05-04 06:55 | 48.24910 | 9.50872 | 27059 ft | 432 kts | 280° |
| 2026-05-04 06:55 | 48.25477 | 9.46435 | 27371 ft | 434 kts | 280° |
| 2026-05-04 06:55 | 48.26034 | 9.41983 | 27687 ft | 435 kts | 279° |
| 2026-05-04 06:55 | 48.26550 | 9.37499 | 28014 ft | 436 kts | 278° |
| 2026-05-04 06:56 | 48.27041 | 9.32988 | 28325 ft | 438 kts | 278° |
| 2026-05-04 06:57 | 48.30503 | 9.00948 | 30515 ft | 451 kts | 278° |
| 2026-05-04 06:58 | 48.31006 | 8.96288 | 30832 ft | 452 kts | 278° |
| 2026-05-04 06:58 | 48.31507 | 8.91620 | 31137 ft | 454 kts | 278° |
| 2026-05-04 06:58 | 48.32010 | 8.86916 | 31458 ft | 456 kts | 278° |
| 2026-05-04 06:58 | 48.32510 | 8.82211 | 31740 ft | 457 kts | 278° |
| 2026-05-04 06:59 | 48.33013 | 8.77475 | 32016 ft | 459 kts | 278° |
| 2026-05-04 06:59 | 48.33514 | 8.72726 | 32274 ft | 461 kts | 278° |
| 2026-05-04 06:59 | 48.34016 | 8.67954 | 32535 ft | 462 kts | 277° |
| 2026-05-04 06:59 | 48.34517 | 8.63162 | 32790 ft | 464 kts | 277° |
| 2026-05-04 07:01 | 48.38005 | 8.29282 | 34472 ft | 471 kts | 277° |
| 2026-05-04 07:01 | 48.38499 | 8.24402 | 34751 ft | 471 kts | 277° |
| 2026-05-04 07:02 | 48.38983 | 8.19600 | 35026 ft | 471 kts | 277° |
| 2026-05-04 07:02 | 48.39471 | 8.14734 | 35303 ft | 470 kts | 277° |
| 2026-05-04 07:02 | 48.39958 | 8.09867 | 35583 ft | 470 kts | 277° |
| 2026-05-04 07:02 | 48.40444 | 8.04994 | 35844 ft | 469 kts | 277° |
| 2026-05-04 07:03 | 48.40929 | 8.00110 | 36102 ft | 470 kts | 277° |
| 2026-05-04 07:03 | 48.41402 | 7.95293 | 36346 ft | 470 kts | 277° |
| 2026-05-04 07:03 | 48.41879 | 7.90426 | 36571 ft | 470 kts | 277° |
| 2026-05-04 07:03 | 48.42356 | 7.85547 | 36791 ft | 470 kts | 277° |
| 2026-05-04 07:04 | 48.42831 | 7.80669 | 37031 ft | 470 kts | 277° |
| 2026-05-04 07:04 | 48.43268 | 7.75811 | 37298 ft | 467 kts | 274° |
| 2026-05-04 07:04 | 48.43391 | 7.70946 | 37555 ft | 464 kts | 268° |
| 2026-05-04 07:04 | 48.43320 | 7.66082 | 37807 ft | 462 kts | 267° |
| 2026-05-04 07:05 | 48.43197 | 7.61256 | 38038 ft | 461 kts | 266° |
| 2026-05-04 07:05 | 48.43046 | 7.56439 | 38245 ft | 460 kts | 266° |
| 2026-05-04 07:05 | 48.42882 | 7.51623 | 38427 ft | 460 kts | 266° |
| 2026-05-04 07:05 | 48.42716 | 7.46797 | 38578 ft | 460 kts | 266° |
| 2026-05-04 07:06 | 48.42389 | 7.37240 | 38889 ft | 460 kts | 266° |
| 2026-05-04 07:06 | 48.42225 | 7.32401 | 38988 ft | 461 kts | 266° |
| 2026-05-04 07:07 | 48.41900 | 7.22912 | 39020 ft | 463 kts | 266° |
| 2026-05-04 07:09 | 48.40519 | 6.84656 | 39021 ft | 463 kts | 265° |
| 2026-05-04 07:09 | 48.40149 | 6.74989 | 39021 ft | 463 kts | 265° |
| 2026-05-04 07:10 | 48.39756 | 6.65312 | 39004 ft | 463 kts | 264° |
| 2026-05-04 07:12 | 48.37238 | 6.26925 | 38999 ft | 463 kts | 263° |
| 2026-05-04 07:12 | 48.36606 | 6.17283 | 39003 ft | 463 kts | 263° |
| 2026-05-04 07:13 | 48.35980 | 6.07843 | 38998 ft | 463 kts | 263° |
| 2026-05-04 07:13 | 48.35329 | 5.98184 | 39000 ft | 463 kts | 263° |
| 2026-05-04 07:14 | 48.33673 | 5.74133 | 39009 ft | 463 kts | 263° |
| 2026-05-04 07:15 | 48.32996 | 5.64487 | 39008 ft | 463 kts | 263° |
| 2026-05-04 07:15 | 48.32317 | 5.54915 | 39011 ft | 463 kts | 263° |
| 2026-05-04 07:16 | 48.31622 | 5.45269 | 39001 ft | 464 kts | 263° |
| 2026-05-04 07:16 | 48.30919 | 5.35634 | 38992 ft | 464 kts | 262° |
| 2026-05-04 07:17 | 48.30218 | 5.26136 | 38993 ft | 463 kts | 262° |
| 2026-05-04 07:17 | 48.29506 | 5.16572 | 38989 ft | 463 kts | 262° |
| 2026-05-04 07:18 | 48.28973 | 5.06912 | 38986 ft | 464 kts | 266° |
| 2026-05-04 07:18 | 48.28746 | 4.97204 | 38992 ft | 465 kts | 266° |
| 2026-05-04 07:19 | 48.28508 | 4.87500 | 38984 ft | 465 kts | 266° |
| 2026-05-04 07:19 | 48.28205 | 4.77800 | 39003 ft | 465 kts | 265° |
| 2026-05-04 07:20 | 48.27869 | 4.68100 | 39001 ft | 465 kts | 265° |
| 2026-05-04 07:20 | 48.28187 | 4.58383 | 38999 ft | 468 kts | 275° |
| 2026-05-04 07:22 | 48.31720 | 4.19625 | 38993 ft | 469 kts | 276° |
| 2026-05-04 07:23 | 48.32587 | 4.09917 | 38992 ft | 469 kts | 276° |
| 2026-05-04 07:23 | 48.33446 | 4.00203 | 38993 ft | 469 kts | 276° |
| 2026-05-04 07:24 | 48.34299 | 3.90469 | 38990 ft | 469 kts | 276° |
| 2026-05-04 07:24 | 48.35144 | 3.80713 | 38992 ft | 470 kts | 276° |
| 2026-05-04 07:26 | 48.38435 | 3.41789 | 38990 ft | 470 kts | 275° |
| 2026-05-04 07:27 | 48.39240 | 3.32012 | 38988 ft | 470 kts | 275° |
| 2026-05-04 07:27 | 48.40035 | 3.22239 | 38979 ft | 470 kts | 275° |
| 2026-05-04 07:28 | 48.40823 | 3.12468 | 38983 ft | 470 kts | 275° |
| 2026-05-04 07:28 | 48.41604 | 3.02684 | 38978 ft | 470 kts | 275° |
| 2026-05-04 07:29 | 48.42953 | 2.93029 | 38972 ft | 472 kts | 283° |
| 2026-05-04 07:29 | 48.44728 | 2.83536 | 38971 ft | 473 kts | 284° |
| 2026-05-04 07:30 | 48.46571 | 2.74008 | 38972 ft | 474 kts | 284° |
| 2026-05-04 07:30 | 48.48406 | 2.64447 | 38972 ft | 474 kts | 284° |
| 2026-05-04 07:31 | 48.50219 | 2.54887 | 38971 ft | 473 kts | 284° |
| 2026-05-04 07:33 | 48.57356 | 2.16637 | 38971 ft | 473 kts | 283° |
| 2026-05-04 07:33 | 48.58780 | 2.06938 | 38971 ft | 472 kts | 279° |
| 2026-05-04 07:34 | 48.60043 | 1.97194 | 38970 ft | 472 kts | 279° |
| 2026-05-04 07:34 | 48.61335 | 1.87512 | 38971 ft | 473 kts | 280° |
| 2026-05-04 07:35 | 48.62670 | 1.77779 | 38971 ft | 473 kts | 280° |
| 2026-05-04 07:35 | 48.63787 | 1.69676 | 38972 ft | 473 kts | 280° |
| 2026-05-04 07:36 | 48.65130 | 1.59903 | 38972 ft | 474 kts | 280° |
| 2026-05-04 07:38 | 48.70350 | 1.20801 | 38983 ft | 475 kts | 279° |
| 2026-05-04 07:38 | 48.71635 | 1.10988 | 38989 ft | 475 kts | 279° |
| 2026-05-04 07:39 | 48.72916 | 1.01171 | 38986 ft | 475 kts | 279° |
| 2026-05-04 07:39 | 48.74189 | 0.91357 | 38991 ft | 475 kts | 279° |
| 2026-05-04 07:40 | 48.75462 | 0.81519 | 38991 ft | 475 kts | 279° |
| 2026-05-04 07:40 | 48.76715 | 0.71747 | 38993 ft | 475 kts | 279° |
| 2026-05-04 07:41 | 48.77969 | 0.61900 | 38990 ft | 475 kts | 279° |
| 2026-05-04 07:41 | 48.79217 | 0.52043 | 38992 ft | 475 kts | 279° |
| 2026-05-04 07:42 | 48.80821 | 0.42285 | 38992 ft | 477 kts | 284° |
| 2026-05-04 07:42 | 48.82681 | 0.32686 | 38987 ft | 477 kts | 284° |
| 2026-05-04 07:43 | 48.84509 | 0.22988 | 38992 ft | 477 kts | 284° |
| 2026-05-04 07:43 | 48.86268 | 0.13260 | 38988 ft | 477 kts | 283° |
| 2026-05-04 07:44 | 48.87995 | 0.03522 | 38991 ft | 477 kts | 283° |
| 2026-05-04 07:44 | 48.89703 | -0.06159 | 38991 ft | 477 kts | 284° |
| 2026-05-04 07:45 | 48.91424 | -0.15970 | 38995 ft | 483 kts | 284° |
| 2026-05-04 07:45 | 48.93155 | -0.25869 | 38987 ft | 485 kts | 284° |
| 2026-05-04 07:46 | 48.94852 | -0.35795 | 38991 ft | 485 kts | 283° |
| 2026-05-04 07:46 | 48.96517 | -0.45733 | 38987 ft | 484 kts | 283° |
| 2026-05-04 07:47 | 48.98176 | -0.55690 | 38989 ft | 484 kts | 283° |
| 2026-05-04 07:49 | 49.04739 | -0.95472 | 38984 ft | 484 kts | 283° |
| 2026-05-04 07:49 | 49.06353 | -1.05391 | 38992 ft | 484 kts | 283° |
| 2026-05-04 07:50 | 49.07970 | -1.15383 | 38983 ft | 484 kts | 283° |
| 2026-05-04 07:50 | 49.09585 | -1.25381 | 38991 ft | 484 kts | 283° |
| 2026-05-04 07:51 | 49.11204 | -1.35380 | 38994 ft | 485 kts | 283° |
| 2026-05-04 07:51 | 49.12805 | -1.45316 | 38984 ft | 484 kts | 282° |
| 2026-05-04 07:52 | 49.14403 | -1.55318 | 38986 ft | 484 kts | 282° |
| 2026-05-04 07:52 | 49.15995 | -1.65339 | 38987 ft | 485 kts | 282° |
| 2026-05-04 07:54 | 49.22258 | -2.05362 | 38987 ft | 485 kts | 282° |
| 2026-05-04 07:55 | 49.23925 | -2.15367 | 38988 ft | 485 kts | 284° |
| 2026-05-04 07:55 | 49.25674 | -2.25355 | 38983 ft | 485 kts | 284° |
| 2026-05-04 07:56 | 49.27403 | -2.35354 | 38985 ft | 485 kts | 283° |
| 2026-05-04 07:56 | 49.29106 | -2.45372 | 38987 ft | 485 kts | 283° |
| 2026-05-04 07:57 | 49.30783 | -2.55345 | 38990 ft | 485 kts | 283° |
| 2026-05-04 07:57 | 49.32459 | -2.65375 | 38988 ft | 486 kts | 283° |
| 2026-05-04 07:58 | 49.34132 | -2.75432 | 38991 ft | 486 kts | 283° |
| 2026-05-04 07:58 | 49.35796 | -2.85486 | 38985 ft | 486 kts | 283° |
| 2026-05-04 07:59 | 49.37452 | -2.95553 | 38988 ft | 486 kts | 283° |
| 2026-05-04 07:59 | 49.39097 | -3.05636 | 38995 ft | 486 kts | 283° |
| 2026-05-04 08:00 | 49.40723 | -3.15655 | 38985 ft | 487 kts | 283° |
| 2026-05-04 08:02 | 49.47197 | -3.56118 | 38993 ft | 488 kts | 283° |
| 2026-05-04 08:02 | 49.48799 | -3.66287 | 38989 ft | 488 kts | 283° |
| 2026-05-04 08:03 | 49.50380 | -3.76378 | 38985 ft | 488 kts | 283° |
| 2026-05-04 08:03 | 49.51960 | -3.86539 | 38989 ft | 488 kts | 283° |
| 2026-05-04 08:04 | 49.53536 | -3.96738 | 38985 ft | 489 kts | 283° |
| 2026-05-04 08:04 | 49.55101 | -4.06909 | 38991 ft | 489 kts | 283° |
| 2026-05-04 08:05 | 49.56661 | -4.17128 | 38989 ft | 489 kts | 282° |
| 2026-05-04 08:05 | 49.58210 | -4.27339 | 38983 ft | 489 kts | 282° |
| 2026-05-04 08:06 | 49.60099 | -4.37409 | 38982 ft | 489 kts | 288° |
| 2026-05-04 08:06 | 49.62335 | -4.47330 | 38980 ft | 490 kts | 289° |
| 2026-05-04 08:08 | 49.71369 | -4.86958 | 38971 ft | 490 kts | 289° |
| 2026-05-04 08:11 | 49.81367 | -5.31850 | 38971 ft | 491 kts | 288° |
| 2026-05-04 08:11 | 49.84668 | -5.46877 | 38962 ft | 491 kts | 288° |
| 2026-05-04 08:12 | 49.86846 | -5.56858 | 38961 ft | 491 kts | 288° |
| 2026-05-04 08:12 | 49.89026 | -5.66902 | 38962 ft | 491 kts | 288° |
| 2026-05-04 08:13 | 49.91199 | -5.76955 | 38971 ft | 492 kts | 288° |
| 2026-05-04 08:13 | 49.93370 | -5.87049 | 39237 ft | 492 kts | 288° |
| 2026-05-04 08:14 | 49.94445 | -5.92068 | 39415 ft | 491 kts | 288° |
| 2026-05-04 08:14 | 49.95522 | -5.97107 | 39585 ft | 491 kts | 288° |
| 2026-05-04 08:14 | 49.96598 | -6.02155 | 39724 ft | 491 kts | 288° |
| 2026-05-04 08:16 | 50.04056 | -6.37495 | 39987 ft | 492 kts | 288° |
| 2026-05-04 08:16 | 50.06170 | -6.47626 | 39991 ft | 492 kts | 288° |
| 2026-05-04 08:17 | 50.08279 | -6.57763 | 39989 ft | 492 kts | 288° |
| 2026-05-04 08:17 | 50.10382 | -6.67935 | 39986 ft | 492 kts | 288° |
| 2026-05-04 08:19 | 50.18321 | -7.06855 | 40002 ft | 492 kts | 288° |
| 2026-05-04 08:20 | 50.20373 | -7.17033 | 39999 ft | 491 kts | 288° |
| 2026-05-04 08:20 | 50.22421 | -7.27248 | 40007 ft | 492 kts | 287° |
| 2026-05-04 08:21 | 50.24454 | -7.37442 | 40008 ft | 492 kts | 287° |
| 2026-05-04 08:21 | 50.26472 | -7.47610 | 40007 ft | 492 kts | 287° |
| 2026-05-04 08:22 | 50.28489 | -7.57829 | 40009 ft | 492 kts | 287° |
| 2026-05-04 08:24 | 50.36439 | -7.98846 | 40013 ft | 492 kts | 284° |
| 2026-05-04 08:24 | 50.37845 | -8.09336 | 40017 ft | 492 kts | 281° |
| 2026-05-04 08:25 | 50.39125 | -8.19874 | 40025 ft | 492 kts | 281° |
| 2026-05-04 08:25 | 50.40375 | -8.30431 | 40027 ft | 492 kts | 281° |
| 2026-05-04 08:27 | 50.45320 | -8.72681 | 40042 ft | 492 kts | 281° |
| 2026-05-04 08:28 | 50.46533 | -8.83249 | 40051 ft | 492 kts | 281° |
| 2026-05-04 08:28 | 50.47730 | -8.93760 | 40044 ft | 492 kts | 281° |
| 2026-05-04 08:29 | 50.48932 | -9.04406 | 40057 ft | 492 kts | 281° |
| 2026-05-04 08:31 | 50.53611 | -9.46747 | 40049 ft | 492 kts | 280° |
| 2026-05-04 08:33 | 50.58142 | -9.89232 | 40064 ft | 493 kts | 280° |
| 2026-05-04 08:35 | 50.62516 | -10.31775 | 40077 ft | 493 kts | 279° |
| 2026-05-04 08:35 | 50.63587 | -10.42437 | 40077 ft | 492 kts | 279° |
| 2026-05-04 08:37 | 50.67256 | -10.79775 | 40064 ft | 492 kts | 279° |
| 2026-05-04 08:38 | 50.68284 | -10.90471 | 40076 ft | 492 kts | 279° |
| 2026-05-04 08:38 | 50.69294 | -11.01086 | 40076 ft | 492 kts | 279° |
| 2026-05-04 08:40 | 50.73260 | -11.43830 | 40069 ft | 492 kts | 279° |
| 2026-05-04 08:41 | 50.74227 | -11.54529 | 40059 ft | 492 kts | 279° |
| 2026-05-04 08:41 | 50.75185 | -11.65238 | 40076 ft | 492 kts | 279° |
| 2026-05-04 08:42 | 50.76133 | -11.75949 | 40076 ft | 492 kts | 279° |
| 2026-05-04 08:42 | 50.77065 | -11.86595 | 40060 ft | 492 kts | 279° |
| 2026-05-04 08:43 | 50.77995 | -11.97330 | 40069 ft | 492 kts | 279° |
| 2026-05-04 08:43 | 50.78909 | -12.08044 | 40075 ft | 492 kts | 279° |
| 2026-05-04 08:44 | 50.79818 | -12.18760 | 40078 ft | 491 kts | 279° |
| 2026-05-04 08:46 | 50.83341 | -12.61549 | 40076 ft | 490 kts | 278° |
| 2026-05-04 08:46 | 50.84197 | -12.72270 | 40076 ft | 490 kts | 278° |
| 2026-05-04 08:47 | 50.85045 | -12.82989 | 40077 ft | 490 kts | 278° |
| 2026-05-04 08:47 | 50.85880 | -12.93689 | 40069 ft | 489 kts | 278° |
| 2026-05-04 08:48 | 50.86700 | -13.04337 | 40076 ft | 490 kts | 278° |
| 2026-05-04 08:48 | 50.87517 | -13.15063 | 40076 ft | 490 kts | 278° |
| 2026-05-04 08:49 | 50.88323 | -13.25783 | 40077 ft | 489 kts | 278° |
| 2026-05-04 08:50 | 50.91065 | -13.63252 | 40081 ft | 489 kts | 278° |
| 2026-05-04 08:51 | 50.91825 | -13.73954 | 40082 ft | 489 kts | 278° |
| 2026-05-04 08:51 | 50.92576 | -13.84673 | 40082 ft | 489 kts | 278° |
| 2026-05-04 08:52 | 50.93314 | -13.95326 | 40081 ft | 489 kts | 278° |
| 2026-05-04 08:52 | 50.94049 | -14.06038 | 40083 ft | 488 kts | 277° |
| 2026-05-04 08:54 | 50.96821 | -14.48064 | 40082 ft | 487 kts | 277° |
| 2026-05-04 08:55 | 50.97495 | -14.58695 | 40081 ft | 487 kts | 277° |
| 2026-05-04 08:55 | 50.98166 | -14.69399 | 40083 ft | 486 kts | 277° |
| 2026-05-04 08:57 | 51.04058 | -15.04986 | 40081 ft | 481 kts | 302° |
| 2026-05-04 09:01 | 51.20256 | -15.75318 | 40083 ft | 483 kts | 291° |
| 2026-05-04 09:01 | 51.22461 | -15.85452 | 40082 ft | 483 kts | 291° |
| 2026-05-04 09:02 | 51.24654 | -15.95597 | 40082 ft | 483 kts | 290° |
| 2026-05-04 09:02 | 51.26839 | -16.05753 | 40082 ft | 483 kts | 290° |
| 2026-05-04 09:03 | 51.29010 | -16.15895 | 40083 ft | 482 kts | 290° |
| 2026-05-04 09:03 | 51.31159 | -16.25980 | 40082 ft | 482 kts | 290° |
| 2026-05-04 09:04 | 51.33313 | -16.36138 | 40082 ft | 482 kts | 290° |
| 2026-05-04 09:04 | 51.35456 | -16.46296 | 40081 ft | 482 kts | 290° |
| 2026-05-04 09:05 | 51.37596 | -16.56488 | 40083 ft | 482 kts | 290° |
| 2026-05-04 09:05 | 51.39722 | -16.66670 | 40082 ft | 481 kts | 290° |
| 2026-05-04 09:06 | 51.41823 | -16.76785 | 40081 ft | 481 kts | 290° |
| 2026-05-04 09:08 | 51.50190 | -17.17569 | 40082 ft | 481 kts | 289° |
| 2026-05-04 09:08 | 51.52258 | -17.27784 | 40082 ft | 481 kts | 289° |
| 2026-05-04 09:09 | 51.54316 | -17.38000 | 40083 ft | 480 kts | 289° |
| 2026-05-04 09:09 | 51.56365 | -17.48226 | 40081 ft | 480 kts | 289° |
| 2026-05-04 09:10 | 51.58402 | -17.58443 | 40083 ft | 480 kts | 289° |
| 2026-05-04 09:10 | 51.60430 | -17.68667 | 40083 ft | 480 kts | 289° |
| 2026-05-04 09:11 | 51.62437 | -17.78844 | 40082 ft | 480 kts | 289° |
| 2026-05-04 09:11 | 51.64447 | -17.89088 | 40083 ft | 480 kts | 289° |
| 2026-05-04 09:12 | 51.66448 | -17.99338 | 40082 ft | 479 kts | 288° |
| 2026-05-04 09:14 | 51.74358 | -18.40412 | 40082 ft | 479 kts | 288° |
| 2026-05-04 09:14 | 51.76297 | -18.50621 | 40082 ft | 479 kts | 288° |
| 2026-05-04 09:15 | 51.78245 | -18.60930 | 40082 ft | 479 kts | 288° |
| 2026-05-04 09:15 | 51.80181 | -18.71231 | 40082 ft | 479 kts | 288° |
| 2026-05-04 09:17 | 51.88462 | -19.15955 | 40082 ft | 479 kts | 288° |
| 2026-05-04 09:18 | 51.90346 | -19.26281 | 40081 ft | 479 kts | 288° |
| 2026-05-04 09:18 | 51.92228 | -19.36662 | 40082 ft | 479 kts | 287° |
| 2026-05-04 09:19 | 51.94095 | -19.47017 | 40085 ft | 478 kts | 287° |
| 2026-05-04 09:19 | 51.95956 | -19.57392 | 40091 ft | 478 kts | 287° |
| 2026-05-04 09:20 | 51.97792 | -19.67693 | 40091 ft | 478 kts | 287° |
| 2026-05-04 09:20 | 51.99632 | -19.78068 | 40091 ft | 478 kts | 287° |
| 2026-05-04 09:21 | 52.01461 | -19.88445 | 40091 ft | 478 kts | 287° |
| 2026-05-04 09:21 | 52.03107 | -19.98922 | 40092 ft | 479 kts | 279° |
| 2026-05-04 09:22 | 52.03772 | -20.09693 | 40091 ft | 479 kts | 275° |
| 2026-05-04 09:22 | 52.04226 | -20.20510 | 40092 ft | 479 kts | 275° |
| 2026-05-04 09:23 | 52.04633 | -20.31249 | 40093 ft | 479 kts | 275° |
| 2026-05-04 09:23 | 52.05046 | -20.42081 | 40110 ft | 479 kts | 275° |
| 2026-05-04 09:25 | 52.06644 | -20.85269 | 40110 ft | 479 kts | 274° |
| 2026-05-04 09:26 | 52.07019 | -20.96077 | 40101 ft | 479 kts | 274° |
| 2026-05-04 09:26 | 52.07384 | -21.06888 | 40100 ft | 478 kts | 274° |
| 2026-05-04 09:27 | 52.07739 | -21.17695 | 40100 ft | 478 kts | 274° |
| 2026-05-04 09:27 | 52.08084 | -21.28513 | 40101 ft | 478 kts | 274° |
| 2026-05-04 09:28 | 52.08419 | -21.39314 | 40100 ft | 478 kts | 274° |
| 2026-05-04 09:28 | 52.08745 | -21.50121 | 40100 ft | 478 kts | 274° |
| 2026-05-04 09:29 | 52.09058 | -21.60852 | 40100 ft | 478 kts | 274° |
| 2026-05-04 09:29 | 52.09364 | -21.71674 | 40100 ft | 478 kts | 273° |
| 2026-05-04 09:30 | 52.09659 | -21.82498 | 40100 ft | 478 kts | 273° |
| 2026-05-04 09:30 | 52.09944 | -21.93301 | 40100 ft | 478 kts | 273° |
| 2026-05-04 09:31 | 52.10221 | -22.04139 | 40100 ft | 478 kts | 273° |
| 2026-05-04 09:31 | 52.10485 | -22.14878 | 40100 ft | 478 kts | 273° |
| 2026-05-04 09:32 | 52.10742 | -22.25706 | 40101 ft | 478 kts | 273° |
| 2026-05-04 09:34 | 52.11667 | -22.68991 | 40116 ft | 478 kts | 272° |
| 2026-05-04 09:34 | 52.11872 | -22.79736 | 40119 ft | 478 kts | 272° |
| 2026-05-04 09:35 | 52.12070 | -22.90609 | 40119 ft | 477 kts | 272° |
| 2026-05-04 09:35 | 52.12256 | -23.01342 | 40119 ft | 477 kts | 272° |
| 2026-05-04 09:37 | 52.12903 | -23.44564 | 40119 ft | 477 kts | 272° |
| 2026-05-04 09:38 | 52.13040 | -23.55379 | 40119 ft | 477 kts | 272° |
| 2026-05-04 09:38 | 52.13167 | -23.66102 | 40110 ft | 477 kts | 272° |
| 2026-05-04 09:39 | 52.13284 | -23.76917 | 40110 ft | 477 kts | 272° |
| 2026-05-04 09:39 | 52.13391 | -23.87710 | 40110 ft | 477 kts | 271° |
| 2026-05-04 09:40 | 52.13488 | -23.98500 | 40110 ft | 477 kts | 271° |
| 2026-05-04 09:40 | 52.13575 | -24.09238 | 40109 ft | 477 kts | 271° |
| 2026-05-04 09:42 | 52.13829 | -24.52454 | 40145 ft | 477 kts | 271° |
| 2026-05-04 09:43 | 52.13867 | -24.63244 | 40147 ft | 477 kts | 271° |
| 2026-05-04 09:43 | 52.13895 | -24.73969 | 40146 ft | 477 kts | 271° |
| 2026-05-04 09:44 | 52.13914 | -24.84772 | 40146 ft | 477 kts | 271° |
| 2026-05-04 09:46 | 52.13891 | -25.27970 | 40194 ft | 476 kts | 270° |
| 2026-05-04 09:46 | 52.13861 | -25.38709 | 40219 ft | 477 kts | 270° |
| 2026-05-04 09:47 | 52.13821 | -25.49515 | 40219 ft | 477 kts | 270° |
| 2026-05-04 09:49 | 52.13562 | -25.92596 | 40229 ft | 476 kts | 270° |
| 2026-05-04 09:51 | 52.13205 | -26.30356 | 40228 ft | 476 kts | 270° |
| 2026-05-04 09:51 | 52.13081 | -26.41149 | 40229 ft | 476 kts | 270° |
| 2026-05-04 09:52 | 52.12949 | -26.51853 | 40230 ft | 476 kts | 269° |
| 2026-05-04 09:52 | 52.12805 | -26.62636 | 40229 ft | 476 kts | 269° |
| 2026-05-04 09:53 | 52.12652 | -26.73417 | 40229 ft | 476 kts | 269° |
| 2026-05-04 09:53 | 52.12488 | -26.84198 | 40229 ft | 476 kts | 269° |
| 2026-05-04 09:54 | 52.12316 | -26.94988 | 40229 ft | 476 kts | 269° |
| 2026-05-04 09:54 | 52.12132 | -27.05772 | 40238 ft | 476 kts | 269° |
| 2026-05-04 09:55 | 52.11941 | -27.16471 | 40241 ft | 476 kts | 269° |
| 2026-05-04 09:55 | 52.11739 | -27.27267 | 40243 ft | 476 kts | 269° |
| 2026-05-04 09:56 | 52.11527 | -27.38047 | 40245 ft | 476 kts | 269° |
| 2026-05-04 09:56 | 52.11304 | -27.48834 | 40254 ft | 476 kts | 269° |
| 2026-05-04 09:57 | 52.11073 | -27.59549 | 40252 ft | 476 kts | 269° |
| 2026-05-04 09:57 | 52.10832 | -27.70317 | 40249 ft | 476 kts | 269° |
| 2026-05-04 09:58 | 52.10581 | -27.81086 | 40248 ft | 476 kts | 269° |
| 2026-05-04 09:58 | 52.10319 | -27.91857 | 40240 ft | 476 kts | 268° |
| 2026-05-04 10:00 | 52.09228 | -28.33102 | 40244 ft | 476 kts | 268° |
| 2026-05-04 10:04 | 52.06864 | -29.08343 | 40245 ft | 476 kts | 268° |
| 2026-05-04 10:04 | 52.06489 | -29.19027 | 40250 ft | 476 kts | 267° |
| 2026-05-04 10:05 | 52.06102 | -29.29770 | 40243 ft | 476 kts | 267° |
| 2026-05-04 10:05 | 52.05706 | -29.40508 | 40243 ft | 476 kts | 267° |
| 2026-05-04 10:06 | 52.05299 | -29.51277 | 40245 ft | 476 kts | 267° |
| 2026-05-04 10:06 | 52.04883 | -29.62020 | 40248 ft | 476 kts | 267° |
| 2026-05-04 10:08 | 52.03456 | -29.99548 | 40243 ft | 476 kts | 272° |
| 2026-05-04 10:08 | 52.03775 | -30.10279 | 40245 ft | 476 kts | 274° |
| 2026-05-04 10:09 | 52.04213 | -30.21015 | 40244 ft | 476 kts | 274° |
| 2026-05-04 10:09 | 52.04661 | -30.31747 | 40247 ft | 476 kts | 274° |
| 2026-05-04 10:10 | 52.05091 | -30.42482 | 40247 ft | 476 kts | 274° |
| 2026-05-04 10:10 | 52.05503 | -30.53167 | 40246 ft | 476 kts | 274° |
| 2026-05-04 10:11 | 52.05904 | -30.63910 | 40246 ft | 476 kts | 274° |
| 2026-05-04 10:11 | 52.06296 | -30.74651 | 40252 ft | 476 kts | 274° |
| 2026-05-04 10:12 | 52.06678 | -30.85389 | 40247 ft | 476 kts | 274° |
| 2026-05-04 10:12 | 52.07049 | -30.96079 | 40243 ft | 476 kts | 274° |
| 2026-05-04 10:13 | 52.07412 | -31.06831 | 40245 ft | 476 kts | 274° |
| 2026-05-04 10:13 | 52.07765 | -31.17583 | 40245 ft | 476 kts | 273° |
| 2026-05-04 10:14 | 52.08109 | -31.28334 | 40212 ft | 476 kts | 273° |
| 2026-05-04 10:16 | 52.09234 | -31.65999 | 40101 ft | 476 kts | 273° |
| 2026-05-04 10:16 | 52.09385 | -31.71390 | 40100 ft | 476 kts | 273° |
| 2026-05-04 10:16 | 52.09680 | -31.82152 | 40091 ft | 476 kts | 273° |
| 2026-05-04 10:17 | 52.09963 | -31.92858 | 40091 ft | 476 kts | 273° |
| 2026-05-04 10:19 | 52.11005 | -32.35954 | 40091 ft | 477 kts | 272° |
| 2026-05-04 10:19 | 52.11241 | -32.46722 | 40091 ft | 477 kts | 272° |
| 2026-05-04 10:20 | 52.11467 | -32.57524 | 40091 ft | 477 kts | 272° |
| 2026-05-04 10:20 | 52.11682 | -32.68239 | 40091 ft | 477 kts | 272° |
| 2026-05-04 10:21 | 52.11888 | -32.79040 | 40083 ft | 477 kts | 272° |
| 2026-05-04 10:21 | 52.12086 | -32.89839 | 40082 ft | 477 kts | 272° |
| 2026-05-04 10:22 | 52.12362 | -33.06050 | 40082 ft | 477 kts | 272° |
| 2026-05-04 10:23 | 52.12535 | -33.16860 | 40083 ft | 478 kts | 272° |
| 2026-05-04 10:25 | 52.13124 | -33.59971 | 40076 ft | 478 kts | 271° |
| 2026-05-04 10:25 | 52.13247 | -33.70780 | 40075 ft | 477 kts | 271° |
| 2026-05-04 10:26 | 52.13360 | -33.81589 | 40076 ft | 477 kts | 271° |
| 2026-05-04 10:26 | 52.13464 | -33.92418 | 40075 ft | 477 kts | 271° |
| 2026-05-04 10:27 | 52.13557 | -34.03231 | 40067 ft | 477 kts | 271° |
| 2026-05-04 10:27 | 52.13640 | -34.13969 | 40069 ft | 477 kts | 271° |
| 2026-05-04 10:28 | 52.13714 | -34.24770 | 40076 ft | 477 kts | 271° |
| 2026-05-04 10:28 | 52.13777 | -34.35586 | 40069 ft | 477 kts | 271° |
| 2026-05-04 10:29 | 52.13831 | -34.46404 | 40070 ft | 477 kts | 271° |
| 2026-05-04 10:29 | 52.13875 | -34.57227 | 40070 ft | 478 kts | 271° |
| 2026-05-04 10:30 | 52.13910 | -34.68034 | 40069 ft | 478 kts | 271° |
| 2026-05-04 10:30 | 52.13934 | -34.78848 | 40062 ft | 478 kts | 271° |
| 2026-05-04 10:31 | 52.13948 | -34.89606 | 40061 ft | 477 kts | 270° |
| 2026-05-04 10:32 | 52.13920 | -35.27447 | 40050 ft | 477 kts | 270° |
| 2026-05-04 10:33 | 52.13890 | -35.38269 | 40048 ft | 477 kts | 270° |
| 2026-05-04 10:33 | 52.13850 | -35.49068 | 40060 ft | 477 kts | 270° |
| 2026-05-04 10:34 | 52.13800 | -35.59889 | 40053 ft | 477 kts | 270° |
| 2026-05-04 10:34 | 52.13741 | -35.70687 | 40053 ft | 477 kts | 270° |
| 2026-05-04 10:35 | 52.13671 | -35.81485 | 40045 ft | 477 kts | 270° |
| 2026-05-04 10:35 | 52.13592 | -35.92212 | 40040 ft | 477 kts | 270° |
| 2026-05-04 10:36 | 52.13503 | -36.03016 | 40040 ft | 477 kts | 270° |
| 2026-05-04 10:36 | 52.13404 | -36.13816 | 40047 ft | 477 kts | 270° |
| 2026-05-04 10:37 | 52.13295 | -36.24609 | 40037 ft | 477 kts | 270° |
| 2026-05-04 10:37 | 52.13176 | -36.35411 | 40038 ft | 477 kts | 270° |
| 2026-05-04 10:39 | 52.12683 | -36.73156 | 40038 ft | 477 kts | 269° |
| 2026-05-04 10:40 | 52.12520 | -36.83950 | 40038 ft | 477 kts | 269° |
| 2026-05-04 10:40 | 52.12347 | -36.94740 | 40035 ft | 476 kts | 269° |
| 2026-05-04 10:41 | 52.12164 | -37.05509 | 40024 ft | 476 kts | 269° |
| 2026-05-04 10:41 | 52.11972 | -37.16290 | 40024 ft | 476 kts | 269° |
| 2026-05-04 10:42 | 52.11770 | -37.27056 | 40028 ft | 476 kts | 269° |
| 2026-05-04 10:42 | 52.11560 | -37.37753 | 40028 ft | 476 kts | 269° |
| 2026-05-04 10:43 | 52.11338 | -37.48509 | 40025 ft | 475 kts | 269° |
| 2026-05-04 10:45 | 52.10399 | -37.89697 | 40018 ft | 475 kts | 269° |
| 2026-05-04 10:45 | 52.10131 | -38.00440 | 40018 ft | 475 kts | 268° |
| 2026-05-04 10:46 | 52.09853 | -38.11183 | 40016 ft | 475 kts | 268° |
| 2026-05-04 10:46 | 52.09566 | -38.21865 | 40008 ft | 475 kts | 268° |
| 2026-05-04 10:47 | 52.09269 | -38.32587 | 40008 ft | 475 kts | 268° |
| 2026-05-04 10:47 | 52.08962 | -38.43322 | 40008 ft | 475 kts | 268° |
| 2026-05-04 10:49 | 52.07636 | -38.86150 | 39997 ft | 474 kts | 268° |
| 2026-05-04 10:50 | 52.07280 | -38.96878 | 39997 ft | 475 kts | 268° |
| 2026-05-04 10:52 | 52.05768 | -39.39558 | 39987 ft | 474 kts | 268° |
| 2026-05-04 10:52 | 52.05365 | -39.50243 | 39991 ft | 473 kts | 267° |
| 2026-05-04 10:54 | 52.03662 | -39.92824 | 39982 ft | 472 kts | 267° |
| 2026-05-04 10:56 | 52.01332 | -40.35383 | 39966 ft | 473 kts | 265° |
| 2026-05-04 10:57 | 52.00699 | -40.46007 | 39965 ft | 473 kts | 265° |
| 2026-05-04 10:57 | 52.00066 | -40.56562 | 39962 ft | 473 kts | 265° |
| 2026-05-04 10:58 | 51.99416 | -40.67176 | 39960 ft | 472 kts | 265° |
| 2026-05-04 10:58 | 51.98756 | -40.77815 | 39962 ft | 470 kts | 265° |
| 2026-05-04 10:59 | 51.98096 | -40.88294 | 39954 ft | 470 kts | 265° |
| 2026-05-04 10:59 | 51.97423 | -40.98833 | 39949 ft | 469 kts | 265° |
| 2026-05-04 11:00 | 51.96740 | -41.09364 | 39952 ft | 469 kts | 265° |
| 2026-05-04 11:02 | 51.93925 | -41.51324 | 39944 ft | 467 kts | 265° |
| 2026-05-04 11:05 | 51.88273 | -42.29514 | 39943 ft | 466 kts | 264° |
| 2026-05-04 11:06 | 51.87479 | -42.39941 | 39943 ft | 466 kts | 264° |
| 2026-05-04 11:06 | 51.86678 | -42.50343 | 39936 ft | 465 kts | 264° |
| 2026-05-04 11:10 | 51.80849 | -43.22577 | 39914 ft | 460 kts | 263° |
| 2026-05-04 11:12 | 51.77348 | -43.63454 | 39907 ft | 459 kts | 263° |
| 2026-05-04 11:12 | 51.76448 | -43.73679 | 39899 ft | 460 kts | 263° |
| 2026-05-04 11:13 | 51.75542 | -43.83907 | 39896 ft | 460 kts | 263° |
| 2026-05-04 11:13 | 51.74624 | -43.94127 | 39896 ft | 459 kts | 263° |
| 2026-05-04 11:16 | 51.69925 | -44.44987 | 39879 ft | 458 kts | 262° |
| 2026-05-04 11:16 | 51.68958 | -44.55137 | 39875 ft | 458 kts | 262° |
| 2026-05-04 11:17 | 51.67984 | -44.65272 | 39869 ft | 457 kts | 262° |
| 2026-05-04 11:19 | 51.64022 | -45.05613 | 39860 ft | 455 kts | 262° |
| 2026-05-04 11:19 | 51.63009 | -45.15690 | 39851 ft | 455 kts | 261° |
| 2026-05-04 11:20 | 51.61991 | -45.25743 | 39852 ft | 455 kts | 261° |
| 2026-05-04 11:20 | 51.60961 | -45.35802 | 39840 ft | 455 kts | 261° |
| 2026-05-04 11:22 | 51.56758 | -45.75974 | 39745 ft | 456 kts | 261° |
| 2026-05-04 11:23 | 51.55682 | -45.86023 | 39711 ft | 456 kts | 261° |
| 2026-05-04 11:25 | 51.51864 | -46.21131 | 39665 ft | 454 kts | 260° |
| 2026-05-04 11:25 | 51.50763 | -46.31072 | 39663 ft | 454 kts | 260° |
| 2026-05-04 11:27 | 51.45884 | -46.74151 | 39646 ft | 451 kts | 259° |
| 2026-05-04 11:28 | 51.44739 | -46.84045 | 39647 ft | 450 kts | 259° |
| 2026-05-04 11:28 | 51.43587 | -46.93908 | 39645 ft | 450 kts | 259° |
| 2026-05-04 11:29 | 51.42428 | -47.03768 | 39644 ft | 449 kts | 259° |
| 2026-05-04 11:29 | 51.41264 | -47.13606 | 39636 ft | 449 kts | 259° |
| 2026-05-04 11:33 | 51.32912 | -47.81908 | 39627 ft | 447 kts | 258° |
| 2026-05-04 11:33 | 51.31683 | -47.91704 | 39618 ft | 447 kts | 258° |
| 2026-05-04 11:34 | 51.30459 | -48.01381 | 39617 ft | 446 kts | 258° |
| 2026-05-04 11:34 | 51.29219 | -48.11113 | 39618 ft | 447 kts | 257° |
| 2026-05-04 11:35 | 51.27971 | -48.20826 | 39618 ft | 446 kts | 257° |
| 2026-05-04 11:35 | 51.26717 | -48.30546 | 39608 ft | 446 kts | 257° |
| 2026-05-04 11:36 | 51.25458 | -48.40242 | 39609 ft | 446 kts | 257° |
| 2026-05-04 11:36 | 51.24187 | -48.49946 | 39609 ft | 446 kts | 257° |
| 2026-05-04 11:37 | 51.22906 | -48.59646 | 39609 ft | 446 kts | 257° |
| 2026-05-04 11:37 | 51.21630 | -48.69270 | 39606 ft | 446 kts | 256° |
| 2026-05-04 11:38 | 51.20335 | -48.78963 | 39600 ft | 446 kts | 256° |
| 2026-05-04 11:38 | 51.19032 | -48.88636 | 39598 ft | 446 kts | 256° |
| 2026-05-04 11:39 | 51.17725 | -48.98309 | 39599 ft | 446 kts | 256° |
| 2026-05-04 11:41 | 51.13082 | -49.32080 | 39590 ft | 447 kts | 256° |
| 2026-05-04 11:41 | 51.11737 | -49.41728 | 39589 ft | 446 kts | 255° |
| 2026-05-04 11:42 | 51.10380 | -49.51389 | 39590 ft | 447 kts | 255° |
| 2026-05-04 11:42 | 51.09016 | -49.61040 | 39590 ft | 447 kts | 255° |
| 2026-05-04 11:43 | 51.07652 | -49.70619 | 39582 ft | 447 kts | 255° |
| 2026-05-04 11:43 | 51.06298 | -49.80084 | 39579 ft | 447 kts | 255° |
| 2026-05-04 11:44 | 51.04910 | -49.89734 | 39579 ft | 447 kts | 255° |
| 2026-05-04 11:44 | 51.03487 | -49.99374 | 39577 ft | 446 kts | 252° |
| 2026-05-04 11:45 | 51.01473 | -50.08674 | 39579 ft | 446 kts | 248° |
| 2026-05-04 11:45 | 50.99269 | -50.17906 | 39580 ft | 447 kts | 247° |
| 2026-05-04 11:46 | 50.97040 | -50.27068 | 39575 ft | 447 kts | 247° |
| 2026-05-04 11:46 | 50.94797 | -50.36283 | 39575 ft | 448 kts | 246° |
| 2026-05-04 11:47 | 50.92552 | -50.45505 | 39567 ft | 448 kts | 246° |
| 2026-05-04 11:47 | 50.90302 | -50.54720 | 39569 ft | 448 kts | 246° |
| 2026-05-04 11:48 | 50.88047 | -50.63927 | 39572 ft | 449 kts | 246° |
| 2026-05-04 11:48 | 50.85786 | -50.73100 | 39571 ft | 449 kts | 246° |
| 2026-05-04 11:49 | 50.83508 | -50.82315 | 39567 ft | 450 kts | 246° |
| 2026-05-04 11:49 | 50.81219 | -50.91536 | 39563 ft | 450 kts | 246° |
| 2026-05-04 11:50 | 50.78919 | -51.00756 | 39562 ft | 451 kts | 246° |
| 2026-05-04 11:50 | 50.76606 | -51.09987 | 39561 ft | 452 kts | 246° |
| 2026-05-04 11:51 | 50.74288 | -51.19208 | 39559 ft | 452 kts | 246° |
| 2026-05-04 11:51 | 50.71955 | -51.28456 | 39561 ft | 453 kts | 246° |
| 2026-05-04 11:52 | 50.69626 | -51.37642 | 39559 ft | 454 kts | 245° |
| 2026-05-04 11:52 | 50.67274 | -51.46881 | 39524 ft | 454 kts | 245° |
| 2026-05-04 11:53 | 50.64912 | -51.56121 | 39492 ft | 455 kts | 245° |
| 2026-05-04 11:53 | 50.62540 | -51.65368 | 39478 ft | 455 kts | 245° |
| 2026-05-04 11:55 | 50.50583 | -51.99617 | 39457 ft | 444 kts | 230° |
| 2026-05-04 11:55 | 50.49022 | -52.03818 | 39484 ft | 449 kts | 246° |
| 2026-05-04 11:56 | 50.48215 | -52.08580 | 39476 ft | 454 kts | 256° |
| 2026-05-04 11:56 | 50.47280 | -52.18456 | 39453 ft | 458 kts | 258° |
| 2026-05-04 11:57 | 50.46285 | -52.28285 | 39424 ft | 457 kts | 256° |
| 2026-05-04 11:57 | 50.45082 | -52.38080 | 39389 ft | 457 kts | 255° |
| 2026-05-04 11:58 | 50.43784 | -52.47855 | 39373 ft | 457 kts | 255° |
| 2026-05-04 11:58 | 50.42473 | -52.57598 | 39373 ft | 456 kts | 255° |
| 2026-05-04 11:59 | 50.41162 | -52.67348 | 39374 ft | 457 kts | 255° |
| 2026-05-04 11:59 | 50.39856 | -52.77033 | 39379 ft | 457 kts | 255° |
| 2026-05-04 12:00 | 50.38525 | -52.86834 | 39403 ft | 457 kts | 255° |
| 2026-05-04 12:00 | 50.37200 | -52.96534 | 39401 ft | 458 kts | 254° |
| 2026-05-04 12:01 | 50.35860 | -53.06285 | 39403 ft | 458 kts | 254° |
| 2026-05-04 12:02 | 50.31085 | -53.40467 | 39393 ft | 460 kts | 254° |
| 2026-05-04 12:03 | 50.29701 | -53.50244 | 39391 ft | 460 kts | 254° |
| 2026-05-04 12:03 | 50.28316 | -53.59955 | 39393 ft | 460 kts | 253° |
| 2026-05-04 12:04 | 50.26910 | -53.69738 | 39395 ft | 461 kts | 253° |
| 2026-05-04 12:04 | 50.25501 | -53.79512 | 39388 ft | 461 kts | 253° |
| 2026-05-04 12:05 | 50.24077 | -53.89280 | 39383 ft | 461 kts | 253° |
| 2026-05-04 12:05 | 50.22643 | -53.99071 | 39380 ft | 462 kts | 253° |
| 2026-05-04 12:06 | 50.21192 | -54.08896 | 39384 ft | 472 kts | 254° |
| 2026-05-04 12:06 | 50.19699 | -54.18971 | 39383 ft | 479 kts | 253° |
| 2026-05-04 12:07 | 50.18193 | -54.29086 | 39377 ft | 478 kts | 253° |
| 2026-05-04 12:07 | 50.16679 | -54.39186 | 39372 ft | 478 kts | 253° |
| 2026-05-04 12:08 | 50.15150 | -54.49293 | 39374 ft | 478 kts | 253° |
| 2026-05-04 12:08 | 50.13611 | -54.59389 | 39372 ft | 478 kts | 253° |
| 2026-05-04 12:09 | 50.12331 | -54.67758 | 39366 ft | 479 kts | 253° |
| 2026-05-04 12:09 | 50.10800 | -54.77712 | 39335 ft | 479 kts | 253° |
| 2026-05-04 12:10 | 50.08957 | -54.89620 | 39329 ft | 479 kts | 253° |
| 2026-05-04 12:10 | 50.07649 | -54.98027 | 39323 ft | 481 kts | 253° |
| 2026-05-04 12:11 | 50.06059 | -55.08182 | 39328 ft | 482 kts | 253° |
| 2026-05-04 12:11 | 50.04459 | -55.18315 | 39330 ft | 482 kts | 253° |
| 2026-05-04 12:12 | 50.02845 | -55.28485 | 39325 ft | 484 kts | 253° |
| 2026-05-04 12:12 | 50.01228 | -55.38608 | 39324 ft | 485 kts | 253° |
| 2026-05-04 12:14 | 49.94627 | -55.79341 | 39299 ft | 487 kts | 253° |
| 2026-05-04 12:15 | 49.92959 | -55.89494 | 39292 ft | 487 kts | 253° |
| 2026-05-04 12:15 | 49.91267 | -55.99691 | 39301 ft | 488 kts | 252° |
| 2026-05-04 12:16 | 49.89566 | -56.09885 | 39296 ft | 488 kts | 252° |
| 2026-05-04 12:16 | 49.87859 | -56.20051 | 39275 ft | 487 kts | 252° |
| 2026-05-04 12:17 | 49.86142 | -56.30229 | 39276 ft | 487 kts | 252° |
| 2026-05-04 12:17 | 49.84420 | -56.40382 | 39266 ft | 487 kts | 252° |
| 2026-05-04 12:18 | 49.82692 | -56.50533 | 39271 ft | 487 kts | 252° |
| 2026-05-04 12:18 | 49.80954 | -56.60671 | 39261 ft | 486 kts | 252° |
| 2026-05-04 12:19 | 49.79221 | -56.70726 | 39259 ft | 486 kts | 252° |
| 2026-05-04 12:19 | 49.77469 | -56.80820 | 39250 ft | 486 kts | 252° |
| 2026-05-04 12:20 | 49.75706 | -56.90919 | 39253 ft | 486 kts | 252° |
| 2026-05-04 12:20 | 49.73936 | -57.00998 | 39241 ft | 485 kts | 252° |
| 2026-05-04 12:21 | 49.72156 | -57.11077 | 39243 ft | 486 kts | 252° |
| 2026-05-04 12:21 | 49.70366 | -57.21162 | 39238 ft | 485 kts | 252° |
| 2026-05-04 12:22 | 49.68573 | -57.31203 | 39225 ft | 485 kts | 252° |
| 2026-05-04 12:22 | 49.66770 | -57.41252 | 39220 ft | 485 kts | 252° |
| 2026-05-04 12:23 | 49.64968 | -57.51231 | 39221 ft | 485 kts | 252° |
| 2026-05-04 12:23 | 49.63144 | -57.61264 | 39221 ft | 485 kts | 252° |
| 2026-05-04 12:24 | 49.61313 | -57.71300 | 39222 ft | 486 kts | 252° |
| 2026-05-04 12:24 | 49.59475 | -57.81323 | 39225 ft | 485 kts | 251° |
| 2026-05-04 12:25 | 49.57628 | -57.91337 | 39221 ft | 485 kts | 251° |
| 2026-05-04 12:25 | 49.55783 | -58.01273 | 39221 ft | 485 kts | 251° |
| 2026-05-04 12:26 | 49.53918 | -58.11273 | 39221 ft | 485 kts | 251° |
| 2026-05-04 12:26 | 49.52045 | -58.21273 | 39226 ft | 486 kts | 251° |
| 2026-05-04 12:27 | 49.50161 | -58.31271 | 39221 ft | 485 kts | 251° |
| 2026-05-04 12:27 | 49.48272 | -58.41239 | 39223 ft | 485 kts | 251° |
| 2026-05-04 12:28 | 49.46372 | -58.51198 | 39223 ft | 485 kts | 251° |
| 2026-05-04 12:28 | 49.44464 | -58.61156 | 39224 ft | 485 kts | 251° |
| 2026-05-04 12:29 | 49.42560 | -58.71041 | 39224 ft | 485 kts | 251° |
| 2026-05-04 12:29 | 49.40637 | -58.80977 | 39230 ft | 485 kts | 251° |
| 2026-05-04 12:30 | 49.38704 | -58.90916 | 39231 ft | 486 kts | 251° |
| 2026-05-04 12:30 | 49.36760 | -59.00849 | 39232 ft | 485 kts | 251° |
| 2026-05-04 12:31 | 49.34809 | -59.10771 | 39231 ft | 485 kts | 251° |
| 2026-05-04 12:31 | 49.32865 | -59.20617 | 39231 ft | 486 kts | 251° |
| 2026-05-04 12:32 | 49.29910 | -59.35480 | 39232 ft | 486 kts | 251° |
| 2026-05-04 12:33 | 49.27928 | -59.45384 | 39233 ft | 486 kts | 251° |
| 2026-05-04 12:33 | 49.25936 | -59.55282 | 39236 ft | 486 kts | 251° |
| 2026-05-04 12:34 | 49.23938 | -59.65167 | 39241 ft | 486 kts | 251° |
| 2026-05-04 12:34 | 49.21926 | -59.75057 | 39242 ft | 486 kts | 251° |
| 2026-05-04 12:35 | 49.19910 | -59.84930 | 39242 ft | 486 kts | 251° |
| 2026-05-04 12:35 | 49.17899 | -59.94731 | 39241 ft | 486 kts | 251° |
| 2026-05-04 12:36 | 49.15867 | -60.04587 | 39240 ft | 486 kts | 251° |
| 2026-05-04 12:36 | 49.13821 | -60.14451 | 39233 ft | 486 kts | 251° |
| 2026-05-04 12:37 | 49.11767 | -60.24315 | 39232 ft | 487 kts | 251° |
| 2026-05-04 12:37 | 49.09718 | -60.34105 | 39232 ft | 487 kts | 251° |
| 2026-05-04 12:38 | 49.07645 | -60.43957 | 39233 ft | 487 kts | 250° |
| 2026-05-04 12:38 | 49.05567 | -60.53788 | 39232 ft | 487 kts | 250° |
| 2026-05-04 12:39 | 49.03479 | -60.63622 | 39232 ft | 487 kts | 250° |
| 2026-05-04 12:39 | 49.01382 | -60.73451 | 39241 ft | 487 kts | 250° |
| 2026-05-04 12:40 | 48.99290 | -60.83205 | 39242 ft | 487 kts | 250° |
| 2026-05-04 12:40 | 48.97179 | -60.93004 | 39241 ft | 487 kts | 250° |
| 2026-05-04 12:41 | 48.95059 | -61.02803 | 39242 ft | 487 kts | 250° |
| 2026-05-04 12:41 | 48.92933 | -61.12577 | 39242 ft | 486 kts | 250° |
| 2026-05-04 12:42 | 48.90798 | -61.22355 | 39241 ft | 487 kts | 250° |
| 2026-05-04 12:42 | 48.88655 | -61.32118 | 39241 ft | 487 kts | 250° |
| 2026-05-04 12:43 | 48.86499 | -61.41883 | 39242 ft | 487 kts | 250° |
| 2026-05-04 12:43 | 48.84350 | -61.51568 | 39242 ft | 487 kts | 250° |
| 2026-05-04 12:44 | 48.82175 | -61.61332 | 39241 ft | 487 kts | 250° |
| 2026-05-04 12:44 | 48.79999 | -61.71064 | 39242 ft | 487 kts | 250° |
| 2026-05-04 12:45 | 48.77813 | -61.80785 | 39252 ft | 486 kts | 250° |
| 2026-05-04 12:45 | 48.75622 | -61.90489 | 39280 ft | 487 kts | 250° |
| 2026-05-04 12:46 | 48.73423 | -62.00184 | 39299 ft | 487 kts | 250° |
| 2026-05-04 12:46 | 48.71216 | -62.09877 | 39296 ft | 486 kts | 250° |
| 2026-05-04 12:47 | 48.69001 | -62.19553 | 39299 ft | 486 kts | 250° |
| 2026-05-04 12:47 | 48.66790 | -62.29161 | 39298 ft | 486 kts | 250° |
| 2026-05-04 12:48 | 48.64557 | -62.38827 | 39307 ft | 486 kts | 250° |
| 2026-05-04 12:48 | 48.62318 | -62.48480 | 39308 ft | 486 kts | 250° |
| 2026-05-04 12:49 | 48.60071 | -62.58121 | 39327 ft | 486 kts | 249° |
| 2026-05-04 12:49 | 48.57817 | -62.67750 | 39346 ft | 486 kts | 249° |
| 2026-05-04 12:50 | 48.55566 | -62.77320 | 39345 ft | 486 kts | 249° |
| 2026-05-04 12:50 | 48.53294 | -62.86947 | 39355 ft | 486 kts | 249° |
| 2026-05-04 12:51 | 48.51018 | -62.96537 | 39355 ft | 486 kts | 249° |
| 2026-05-04 12:51 | 48.48735 | -63.06120 | 39364 ft | 485 kts | 249° |
| 2026-05-04 12:52 | 48.46446 | -63.15694 | 39368 ft | 486 kts | 249° |
| 2026-05-04 12:52 | 48.44146 | -63.25263 | 39383 ft | 485 kts | 249° |
| 2026-05-04 12:53 | 48.42228 | -63.33207 | 39392 ft | 485 kts | 249° |
| 2026-05-04 12:53 | 48.39915 | -63.42748 | 39388 ft | 484 kts | 249° |
| 2026-05-04 12:54 | 48.37220 | -63.53816 | 39402 ft | 484 kts | 249° |
| 2026-05-04 12:54 | 48.35272 | -63.61782 | 39403 ft | 484 kts | 249° |
| 2026-05-04 12:55 | 48.32955 | -63.71223 | 39418 ft | 484 kts | 249° |
| 2026-05-04 12:55 | 48.30617 | -63.80711 | 39438 ft | 483 kts | 249° |
| 2026-05-04 12:56 | 48.28275 | -63.90169 | 39441 ft | 483 kts | 249° |
| 2026-05-04 12:56 | 48.25925 | -63.99632 | 39438 ft | 483 kts | 249° |
| 2026-05-04 12:57 | 48.23583 | -64.09014 | 39438 ft | 483 kts | 249° |
| 2026-05-04 12:57 | 48.21220 | -64.18441 | 39445 ft | 483 kts | 249° |
| 2026-05-04 12:58 | 48.18847 | -64.27866 | 39446 ft | 483 kts | 249° |
| 2026-05-04 12:58 | 48.16471 | -64.37264 | 39450 ft | 483 kts | 249° |
| 2026-05-04 12:59 | 48.14084 | -64.46661 | 39456 ft | 483 kts | 249° |
| 2026-05-04 12:59 | 48.11693 | -64.56052 | 39459 ft | 483 kts | 248° |
| 2026-05-04 13:00 | 48.09290 | -64.65445 | 39473 ft | 483 kts | 248° |
| 2026-05-04 13:00 | 48.06882 | -64.74814 | 39490 ft | 483 kts | 248° |
| 2026-05-04 13:01 | 48.04460 | -64.84195 | 39500 ft | 483 kts | 248° |
| 2026-05-04 13:01 | 48.02036 | -64.93551 | 39508 ft | 483 kts | 248° |
| 2026-05-04 13:02 | 47.99603 | -65.02903 | 39519 ft | 482 kts | 248° |
| 2026-05-04 13:02 | 47.97166 | -65.12232 | 39527 ft | 481 kts | 248° |
| 2026-05-04 13:03 | 47.94744 | -65.21471 | 39538 ft | 480 kts | 248° |
| 2026-05-04 13:03 | 47.92303 | -65.30742 | 39548 ft | 480 kts | 248° |
| 2026-05-04 13:04 | 47.89855 | -65.40012 | 39556 ft | 480 kts | 248° |
| 2026-05-04 13:04 | 47.87397 | -65.49272 | 39565 ft | 480 kts | 248° |
| 2026-05-04 13:05 | 47.84944 | -65.58466 | 39562 ft | 480 kts | 248° |
| 2026-05-04 13:05 | 47.82476 | -65.67696 | 39561 ft | 480 kts | 248° |
| 2026-05-04 13:06 | 47.79999 | -65.76925 | 39574 ft | 480 kts | 248° |
| 2026-05-04 13:06 | 47.77515 | -65.86141 | 39570 ft | 480 kts | 248° |
| 2026-05-04 13:07 | 47.75021 | -65.95360 | 39574 ft | 480 kts | 248° |
| 2026-05-04 13:07 | 47.72520 | -66.04561 | 39570 ft | 480 kts | 248° |
| 2026-05-04 13:08 | 47.70011 | -66.13756 | 39575 ft | 480 kts | 248° |
| 2026-05-04 13:08 | 47.67494 | -66.22943 | 39571 ft | 480 kts | 248° |
| 2026-05-04 13:09 | 47.64989 | -66.32055 | 39571 ft | 480 kts | 247° |
| 2026-05-04 13:09 | 47.62461 | -66.41217 | 39581 ft | 479 kts | 247° |
| 2026-05-04 13:10 | 47.59928 | -66.50358 | 39589 ft | 479 kts | 247° |
| 2026-05-04 13:10 | 47.57381 | -66.59513 | 39611 ft | 480 kts | 247° |
| 2026-05-04 13:11 | 47.54830 | -66.68660 | 39619 ft | 479 kts | 247° |
| 2026-05-04 13:11 | 47.52276 | -66.77777 | 39628 ft | 479 kts | 247° |
| 2026-05-04 13:12 | 47.49777 | -66.86657 | 39636 ft | 479 kts | 247° |
| 2026-05-04 13:12 | 47.47211 | -66.95740 | 39645 ft | 479 kts | 247° |
| 2026-05-04 13:13 | 47.44632 | -67.04838 | 39656 ft | 479 kts | 247° |
| 2026-05-04 13:13 | 47.42051 | -67.13914 | 39664 ft | 479 kts | 247° |
| 2026-05-04 13:14 | 47.39477 | -67.22930 | 39670 ft | 479 kts | 247° |
| 2026-05-04 13:14 | 47.36750 | -67.31890 | 39673 ft | 478 kts | 242° |
| 2026-05-04 13:15 | 47.33647 | -67.40587 | 39677 ft | 479 kts | 242° |
| 2026-05-04 13:15 | 47.30478 | -67.49232 | 39690 ft | 479 kts | 241° |
| 2026-05-04 13:16 | 47.27296 | -67.57868 | 39697 ft | 479 kts | 241° |
| 2026-05-04 13:16 | 47.24117 | -67.66492 | 39693 ft | 479 kts | 241° |
| 2026-05-04 13:17 | 47.20954 | -67.75051 | 39699 ft | 478 kts | 241° |
| 2026-05-04 13:17 | 47.17770 | -67.83644 | 39706 ft | 478 kts | 241° |
| 2026-05-04 13:18 | 47.14582 | -67.92226 | 39695 ft | 478 kts | 241° |
| 2026-05-04 13:18 | 47.11387 | -68.00796 | 39697 ft | 478 kts | 241° |
| 2026-05-04 13:19 | 47.08186 | -68.09351 | 39712 ft | 478 kts | 241° |
| 2026-05-04 13:19 | 47.04978 | -68.17900 | 39699 ft | 477 kts | 241° |
| 2026-05-04 13:20 | 47.01770 | -68.26421 | 39710 ft | 477 kts | 241° |
| 2026-05-04 13:20 | 46.98552 | -68.34942 | 39698 ft | 477 kts | 241° |
| 2026-05-04 13:21 | 46.95334 | -68.43433 | 39698 ft | 477 kts | 241° |
| 2026-05-04 13:21 | 46.92111 | -68.51914 | 39694 ft | 477 kts | 240° |
| 2026-05-04 13:22 | 46.88886 | -68.60372 | 39713 ft | 476 kts | 240° |
| 2026-05-04 13:22 | 46.85718 | -68.68658 | 39712 ft | 476 kts | 240° |
| 2026-05-04 13:23 | 46.82825 | -68.76199 | 39718 ft | 476 kts | 240° |
| 2026-05-04 13:23 | 46.79627 | -68.84515 | 39718 ft | 475 kts | 240° |
| 2026-05-04 13:24 | 46.76382 | -68.92924 | 39721 ft | 476 kts | 240° |
| 2026-05-04 13:24 | 46.73124 | -69.01341 | 39726 ft | 476 kts | 240° |
| 2026-05-04 13:25 | 46.68234 | -69.13919 | 39730 ft | 475 kts | 240° |
| 2026-05-04 13:25 | 46.64970 | -69.22277 | 39734 ft | 475 kts | 240° |
| 2026-05-04 13:26 | 46.61695 | -69.30653 | 39745 ft | 475 kts | 240° |
| 2026-05-04 13:26 | 46.58421 | -69.39006 | 39751 ft | 475 kts | 240° |
| 2026-05-04 13:27 | 46.55138 | -69.47344 | 39748 ft | 474 kts | 240° |
| 2026-05-04 13:27 | 46.51854 | -69.55656 | 39747 ft | 474 kts | 240° |
| 2026-05-04 13:28 | 46.48590 | -69.63898 | 39740 ft | 474 kts | 240° |
| 2026-05-04 13:28 | 46.45298 | -69.72178 | 39748 ft | 473 kts | 240° |
| 2026-05-04 13:29 | 46.42003 | -69.80450 | 39748 ft | 473 kts | 240° |
| 2026-05-04 13:29 | 46.38708 | -69.88697 | 39748 ft | 473 kts | 239° |
| 2026-05-04 13:30 | 46.35401 | -69.96941 | 39748 ft | 473 kts | 239° |
| 2026-05-04 13:30 | 46.32096 | -70.05166 | 39748 ft | 472 kts | 239° |
| 2026-05-04 13:31 | 46.28778 | -70.13391 | 39757 ft | 473 kts | 239° |
| 2026-05-04 13:31 | 46.25480 | -70.21546 | 39757 ft | 473 kts | 239° |
| 2026-05-04 13:32 | 46.22158 | -70.29730 | 39761 ft | 472 kts | 239° |
| 2026-05-04 13:32 | 46.18818 | -70.37917 | 39758 ft | 472 kts | 239° |
| 2026-05-04 13:33 | 46.15477 | -70.46082 | 39757 ft | 472 kts | 239° |
| 2026-05-04 13:33 | 46.12132 | -70.54235 | 39757 ft | 472 kts | 239° |
| 2026-05-04 13:34 | 46.08775 | -70.62397 | 39760 ft | 473 kts | 239° |
| 2026-05-04 13:34 | 46.05419 | -70.70532 | 39756 ft | 473 kts | 239° |
| 2026-05-04 13:35 | 46.00497 | -70.82866 | 39756 ft | 473 kts | 246° |
| 2026-05-04 13:36 | 45.98957 | -70.92003 | 39762 ft | 473 kts | 266° |
| 2026-05-04 13:36 | 45.98770 | -70.99876 | 39757 ft | 472 kts | 268° |
| 2026-05-04 13:37 | 45.98558 | -71.10810 | 39739 ft | 471 kts | 268° |
| 2026-05-04 13:37 | 45.98459 | -71.15491 | 39205 ft | 467 kts | 268° |
| 2026-05-04 13:37 | 45.98389 | -71.18651 | 38554 ft | 471 kts | 268° |
| 2026-05-04 13:37 | 45.98283 | -71.23346 | 37630 ft | 477 kts | 268° |
| 2026-05-04 13:38 | 45.98173 | -71.28116 | 36770 ft | 479 kts | 268° |
| 2026-05-04 13:38 | 45.98060 | -71.32903 | 35949 ft | 479 kts | 268° |
| 2026-05-04 13:38 | 45.97946 | -71.37691 | 35119 ft | 479 kts | 268° |
| 2026-05-04 13:38 | 45.97829 | -71.42500 | 34262 ft | 480 kts | 268° |
| 2026-05-04 13:39 | 45.97709 | -71.47302 | 33411 ft | 480 kts | 268° |
| 2026-05-04 13:39 | 45.97588 | -71.52079 | 32651 ft | 477 kts | 268° |
| 2026-05-04 13:39 | 45.97469 | -71.56825 | 31968 ft | 473 kts | 268° |
| 2026-05-04 13:39 | 45.97345 | -71.61529 | 31390 ft | 467 kts | 268° |
| 2026-05-04 13:40 | 45.97220 | -71.66149 | 30826 ft | 460 kts | 267° |
| 2026-05-04 13:40 | 45.97096 | -71.70687 | 30028 ft | 446 kts | 267° |
| 2026-05-04 13:40 | 45.96975 | -71.75105 | 28837 ft | 438 kts | 267° |
| 2026-05-04 13:40 | 45.96853 | -71.79439 | 27686 ft | 430 kts | 267° |
| 2026-05-04 13:41 | 45.96732 | -71.83693 | 26539 ft | 422 kts | 267° |
| 2026-05-04 13:41 | 45.96611 | -71.87870 | 25365 ft | 414 kts | 267° |
| 2026-05-04 13:41 | 45.96493 | -71.91963 | 24252 ft | 406 kts | 267° |
| 2026-05-04 13:42 | 45.96259 | -71.99904 | 22081 ft | 388 kts | 267° |
| 2026-05-04 13:42 | 45.96146 | -72.03666 | 21642 ft | 366 kts | 267° |
| 2026-05-04 13:42 | 45.96037 | -72.07289 | 21232 ft | 361 kts | 267° |
| 2026-05-04 13:42 | 45.95926 | -72.10887 | 20792 ft | 359 kts | 267° |
| 2026-05-04 13:43 | 45.95813 | -72.14497 | 20372 ft | 361 kts | 267° |
| 2026-05-04 13:43 | 45.95701 | -72.18078 | 19943 ft | 356 kts | 267° |
| 2026-05-04 13:43 | 45.95591 | -72.21569 | 19533 ft | 352 kts | 267° |
| 2026-05-04 13:43 | 45.95479 | -72.25084 | 19100 ft | 350 kts | 267° |
| 2026-05-04 13:44 | 45.95367 | -72.28572 | 18682 ft | 348 kts | 267° |
| 2026-05-04 13:44 | 45.95254 | -72.32040 | 18261 ft | 346 kts | 266° |
| 2026-05-04 13:44 | 45.95140 | -72.35493 | 17852 ft | 344 kts | 266° |
| 2026-05-04 13:44 | 45.94971 | -72.38909 | 17450 ft | 342 kts | 262° |
| 2026-05-04 13:45 | 45.94327 | -72.42188 | 17059 ft | 341 kts | 247° |
| 2026-05-04 13:45 | 45.93274 | -72.45224 | 16650 ft | 339 kts | 243° |
| 2026-05-04 13:45 | 45.92157 | -72.48195 | 16236 ft | 338 kts | 243° |
| 2026-05-04 13:45 | 45.91036 | -72.51169 | 15894 ft | 336 kts | 243° |
| 2026-05-04 13:46 | 45.89923 | -72.54136 | 15633 ft | 336 kts | 243° |
| 2026-05-04 13:46 | 45.88817 | -72.57088 | 15267 ft | 335 kts | 243° |
| 2026-05-04 13:46 | 45.87720 | -72.60023 | 14861 ft | 333 kts | 243° |
| 2026-05-04 13:46 | 45.86627 | -72.62946 | 14471 ft | 331 kts | 243° |
| 2026-05-04 13:47 | 45.85557 | -72.65806 | 14069 ft | 329 kts | 243° |
| 2026-05-04 13:47 | 45.84472 | -72.68700 | 13688 ft | 328 kts | 243° |
| 2026-05-04 13:47 | 45.83409 | -72.71533 | 13453 ft | 317 kts | 243° |
| 2026-05-04 13:47 | 45.82385 | -72.74260 | 13248 ft | 305 kts | 243° |
| 2026-05-04 13:48 | 45.81398 | -72.76888 | 13013 ft | 294 kts | 243° |
| 2026-05-04 13:48 | 45.80442 | -72.79444 | 12648 ft | 289 kts | 243° |
| 2026-05-04 13:48 | 45.79495 | -72.81958 | 12111 ft | 284 kts | 243° |
| 2026-05-04 13:48 | 45.78569 | -72.84406 | 11764 ft | 276 kts | 243° |
| 2026-05-04 13:49 | 45.77654 | -72.86830 | 11488 ft | 275 kts | 243° |
| 2026-05-04 13:49 | 45.76752 | -72.89220 | 11125 ft | 275 kts | 243° |
| 2026-05-04 13:49 | 45.75842 | -72.91625 | 10781 ft | 272 kts | 243° |
| 2026-05-04 13:49 | 45.74941 | -72.94005 | 10510 ft | 273 kts | 243° |
| 2026-05-04 13:50 | 45.74045 | -72.96377 | 10123 ft | 270 kts | 243° |
| 2026-05-04 13:50 | 45.73146 | -72.98755 | 9744 ft | 272 kts | 242° |
| 2026-05-04 13:50 | 45.72277 | -73.01144 | 9293 ft | 270 kts | 246° |
| 2026-05-04 13:50 | 45.71746 | -73.03710 | 8959 ft | 269 kts | 259° |
| 2026-05-04 13:51 | 45.71444 | -73.06360 | 8628 ft | 270 kts | 261° |
| 2026-05-04 13:51 | 45.71174 | -73.09012 | 8303 ft | 268 kts | 261° |
| 2026-05-04 13:51 | 45.70896 | -73.11654 | 7999 ft | 270 kts | 260° |
| 2026-05-04 13:51 | 45.70496 | -73.14265 | 7664 ft | 266 kts | 255° |
| 2026-05-04 13:52 | 45.69587 | -73.19329 | 7034 ft | 263 kts | 255° |
| 2026-05-04 13:52 | 45.69129 | -73.21870 | 6708 ft | 264 kts | 255° |
| 2026-05-04 13:52 | 45.68665 | -73.24391 | 6406 ft | 262 kts | 255° |
| 2026-05-04 13:53 | 45.68202 | -73.26908 | 6081 ft | 259 kts | 255° |
| 2026-05-04 13:53 | 45.67741 | -73.29400 | 5776 ft | 258 kts | 255° |
| 2026-05-04 13:53 | 45.67292 | -73.31885 | 5464 ft | 256 kts | 255° |
| 2026-05-04 13:54 | 45.66387 | -73.36811 | 4856 ft | 257 kts | 255° |
| 2026-05-04 13:54 | 45.65927 | -73.39281 | 4554 ft | 256 kts | 254° |
| 2026-05-04 13:54 | 45.65030 | -73.44219 | 3948 ft | 256 kts | 255° |
| 2026-05-04 13:55 | 45.64581 | -73.46681 | 3690 ft | 254 kts | 254° |
| 2026-05-04 13:55 | 45.63693 | -73.51490 | 3252 ft | 241 kts | 254° |
| 2026-05-04 13:55 | 45.63163 | -73.53601 | 3083 ft | 231 kts | 242° |
| 2026-05-04 13:56 | 45.62504 | -73.54945 | 3010 ft | 222 kts | 227° |
| 2026-05-04 13:56 | 45.61376 | -73.56406 | 2991 ft | 217 kts | 220° |
| 2026-05-04 13:56 | 45.59154 | -73.59307 | 2978 ft | 217 kts | 223° |
| 2026-05-04 13:57 | 45.58076 | -73.60782 | 2756 ft | 212 kts | 224° |
| 2026-05-04 13:57 | 45.57008 | -73.62209 | 2468 ft | 208 kts | 223° |
| 2026-05-04 13:58 | 45.54141 | -73.65960 | 1690 ft | 166 kts | 223° |
| 2026-05-04 13:58 | 45.52579 | -73.68012 | 1278 ft | 141 kts | 224° |
| 2026-05-04 13:58 | 45.51888 | -73.68920 | 1094 ft | 130 kts | 224° |
| 2026-05-04 13:59 | 45.51239 | -73.69770 | 930 ft | 124 kts | 224° |
| 2026-05-04 13:59 | 45.50614 | -73.70602 | 750 ft | 123 kts | 225° |
| 2026-05-04 13:59 | 45.49323 | -73.72285 | 454 ft | 130 kts | 223° |
| 2026-05-04 14:00 | 45.48658 | -73.73150 | 255 ft | 133 kts | 224° |
| 2026-05-04 14:00 | 45.47441 | -73.74804 | 114 ft | 88 kts | 225° |